createdAt,value
2022-09-03T00:00:04.920Z,100196.06
2022-09-03T00:05:15.129Z,100187.00
2022-09-03T00:10:24.043Z,100190.66
2022-09-03T00:15:27.234Z,100187.72
2022-09-03T00:20:33.123Z,100186.91
2022-09-03T00:25:40.372Z,100184.19
2022-09-03T00:30:44.447Z,100180.34
2022-09-03T00:35:51.085Z,100181.16
2022-09-03T00:41:03.447Z,100175.13
2022-09-03T00:46:10.962Z,100175.00
2022-09-03T00:51:20.022Z,100178.47
2022-09-03T00:56:29.896Z,100181.81
2022-09-03T01:01:38.027Z,100180.81
2022-09-03T01:06:45.766Z,100173.78
2022-09-03T01:11:59.386Z,100173.84
2022-09-03T01:17:09.782Z,100178.16
2022-09-03T01:22:25.651Z,100177.06
2022-09-03T01:27:40.302Z,100181.63
2022-09-03T01:32:48.113Z,100186.72
2022-09-03T01:38:01.328Z,100184.91
2022-09-03T01:43:17.181Z,100183.06
2022-09-03T01:48:33.159Z,100184.81
2022-09-03T01:53:47.184Z,100177.63
2022-09-03T01:58:56.850Z,100168.69
2022-09-03T02:04:01.203Z,100175.50
2022-09-03T02:09:03.842Z,100173.53
2022-09-03T02:14:06.673Z,100179.75
2022-09-03T02:19:13.230Z,100176.09
2022-09-03T02:24:15.760Z,100180.53
2022-09-03T02:29:18.703Z,100180.28
2022-09-03T02:34:22.711Z,100180.28
2022-09-03T02:39:25.409Z,100179.22
2022-09-03T02:44:31.540Z,100180.06
2022-09-03T02:49:36.016Z,100161.53
2022-09-03T02:54:40.551Z,100166.75
2022-09-03T02:59:45.396Z,100159.53
2022-09-03T03:04:49.551Z,100160.00
2022-09-03T03:09:52.176Z,100164.72
2022-09-03T03:14:54.783Z,100162.69
2022-09-03T03:19:58.746Z,100154.75
2022-09-03T03:25:01.523Z,100153.81
2022-09-03T03:30:04.458Z,100160.00
2022-09-03T03:35:09.289Z,100157.19
2022-09-03T03:40:13.028Z,100167.69
2022-09-03T03:45:15.737Z,100160.69
2022-09-03T03:50:20.395Z,100168.31
2022-09-03T03:55:23.011Z,100160.50
2022-09-03T04:00:29.650Z,100163.97
2022-09-03T04:05:33.925Z,100161.22
2022-09-03T04:10:37.184Z,100147.84
2022-09-03T04:15:40.801Z,100152.09
2022-09-03T04:20:45.739Z,100153.91
2022-09-03T04:25:53.285Z,100150.94
2022-09-03T04:30:56.263Z,100150.78
2022-09-03T04:36:09.321Z,100139.38
2022-09-03T04:41:20.181Z,100135.94
2022-09-03T04:46:26.029Z,100121.47
2022-09-03T04:51:31.439Z,100142.81
2022-09-03T04:56:35.722Z,100135.66
2022-09-03T05:01:40.259Z,100128.50
2022-09-03T05:06:45.290Z,100140.09
2022-09-03T05:11:47.894Z,100138.28
2022-09-03T05:16:53.094Z,100134.09
2022-09-03T05:21:57.450Z,100141.03
2022-09-03T05:27:00.134Z,100133.41
2022-09-03T05:32:03.985Z,100123.75
2022-09-03T05:37:07.983Z,100130.88
2022-09-03T05:42:14.233Z,100130.88
2022-09-03T05:47:16.894Z,100127.38
2022-09-03T05:52:21.681Z,100124.03
2022-09-03T05:57:24.799Z,100119.81
2022-09-03T06:02:27.552Z,100127.22
2022-09-03T06:07:34.107Z,100121.19
2022-09-03T06:12:37.111Z,100142.78
2022-09-03T06:17:39.742Z,100121.78
2022-09-03T06:22:45.837Z,100122.78
2022-09-03T06:27:49.423Z,100126.63
2022-09-03T06:32:52.379Z,100130.31
2022-09-03T06:37:56.326Z,100126.97
2022-09-03T06:43:01.974Z,100126.47
2022-09-03T06:48:05.138Z,100132.13
2022-09-03T06:53:09.346Z,100138.69
2022-09-03T06:58:11.998Z,100137.19
2022-09-03T07:03:14.687Z,100133.06
2022-09-03T07:08:18.875Z,100144.00
2022-09-03T07:13:22.160Z,100135.19
2022-09-03T07:18:25.063Z,100127.34
2022-09-03T07:23:30.535Z,100130.22
2022-09-03T07:28:33.319Z,100132.13
2022-09-03T07:33:36.054Z,100130.44
2022-09-03T07:38:40.080Z,100133.16
2022-09-03T07:43:44.138Z,100121.84
2022-09-03T07:48:48.928Z,100124.47
2022-09-03T07:53:54.485Z,100124.59
2022-09-03T07:58:57.168Z,100124.78
2022-09-03T08:03:59.845Z,100116.81
2022-09-03T08:09:05.864Z,100135.47
2022-09-03T08:14:10.286Z,100135.59
2022-09-03T08:19:13.165Z,100127.72
2022-09-03T08:24:20.855Z,100126.00
2022-09-03T08:29:23.510Z,100127.78
2022-09-03T08:34:26.538Z,100127.84
2022-09-03T08:39:31.554Z,100134.09
2022-09-03T08:44:39.877Z,100127.00
2022-09-03T08:49:47.220Z,100137.69
2022-09-03T08:54:52.840Z,100134.13
2022-09-03T08:59:57.094Z,100129.63
2022-09-03T09:05:03.462Z,100133.19
2022-09-03T09:10:13.881Z,100141.22
2022-09-03T09:15:23.708Z,100121.63
2022-09-03T09:20:33.698Z,100137.66
2022-09-03T09:25:44.862Z,100119.75
2022-09-03T09:30:49.252Z,100125.09
2022-09-03T09:35:52.135Z,100131.38
2022-09-03T09:40:57.477Z,100120.63
2022-09-03T09:46:08.420Z,100108.94
2022-09-03T09:51:13.519Z,100109.78
2022-09-03T09:56:24.597Z,100109.66
2022-09-03T10:01:30.295Z,100091.69
2022-09-03T10:06:51.034Z,100091.56
2022-09-03T10:12:06.828Z,100096.72
2022-09-03T10:17:13.734Z,100091.09
2022-09-03T10:22:19.963Z,100089.38
2022-09-03T10:27:24.072Z,100080.31
2022-09-03T10:32:38.807Z,100084.56
2022-09-03T10:37:46.106Z,100103.41
2022-09-03T10:42:59.402Z,100081.72
2022-09-03T10:48:13.192Z,100069.50
2022-09-03T10:53:25.518Z,100064.69
2022-09-03T10:58:49.586Z,100068.75
2022-09-03T11:04:00.423Z,100066.03
2022-09-03T11:09:08.974Z,100090.47
2022-09-03T11:14:16.270Z,100058.34
2022-09-03T11:19:21.150Z,100049.53
2022-09-03T11:24:26.642Z,100052.56
2022-09-03T11:29:38.297Z,100045.22
2022-09-03T11:34:47.445Z,100038.41
2022-09-03T11:39:59.051Z,100033.38
2022-09-03T11:45:15.802Z,100034.97
2022-09-03T11:50:22.529Z,100025.38
2022-09-03T11:55:36.082Z,100022.44
2022-09-03T12:00:44.497Z,100019.38
2022-09-03T12:05:53.666Z,100014.66
2022-09-03T12:10:59.860Z,100012.03
2022-09-03T12:16:29.365Z,100012.88
2022-09-03T12:21:32.108Z,100019.53
2022-09-03T12:26:40.905Z,100019.13
2022-09-03T12:31:48.411Z,100025.53
2022-09-03T12:36:52.795Z,100021.59
2022-09-03T12:42:01.282Z,100027.91
2022-09-03T12:52:38.556Z,100019.13
2022-09-03T12:57:43.708Z,100018.72
2022-09-03T13:02:53.682Z,100023.31
2022-09-03T13:07:59.380Z,100015.38
2022-09-03T13:13:03.495Z,100029.69
2022-09-03T13:18:27.113Z,100022.66
2022-09-03T13:23:38.857Z,100028.47
2022-09-03T13:28:52.586Z,100014.19
2022-09-03T13:33:59.109Z,100009.97
2022-09-03T13:39:06.256Z,100024.31
2022-09-03T13:44:12.893Z,100018.06
2022-09-03T13:49:46.468Z,100011.94
2022-09-03T13:54:53.892Z,100021.38
2022-09-03T14:00:01.138Z,100018.78
2022-09-03T14:05:14.288Z,100012.03
2022-09-03T14:10:23.719Z,100011.88
2022-09-03T14:15:30.317Z,100019.22
2022-09-03T14:20:41.972Z,100037.38
2022-09-03T14:25:53.723Z,100020.25
2022-09-03T14:31:00.549Z,100036.03
2022-09-03T14:36:13.292Z,100031.13
2022-09-03T14:41:37.552Z,100034.13
2022-09-03T14:46:50.227Z,100034.13
2022-09-03T14:52:09.155Z,100037.13
2022-09-03T14:57:35.307Z,100046.28
2022-09-03T15:02:51.355Z,100046.13
2022-09-03T15:07:58.199Z,100045.50
2022-09-03T15:13:10.107Z,100048.38
2022-09-03T15:18:22.192Z,100049.13
2022-09-03T15:23:48.755Z,100050.34
2022-09-03T15:29:00.668Z,100047.13
2022-09-03T15:34:12.479Z,100051.72
2022-09-03T15:39:21.951Z,100065.53
2022-09-03T15:44:25.816Z,100076.09
2022-09-03T15:49:36.079Z,100079.72
2022-09-03T15:54:44.669Z,100070.28
2022-09-03T15:59:53.320Z,100074.66
2022-09-03T16:05:07.104Z,100077.56
2022-09-03T16:10:30.282Z,100077.72
2022-09-03T16:15:37.568Z,100071.41
2022-09-03T16:20:44.647Z,100083.22
2022-09-03T16:25:51.391Z,100079.94
2022-09-03T16:31:04.016Z,100080.09
2022-09-03T16:36:18.948Z,100081.19
2022-09-03T16:41:29.037Z,100076.91
2022-09-03T16:46:36.843Z,100086.91
2022-09-03T16:51:45.909Z,100087.63
2022-09-03T16:56:57.559Z,100102.94
2022-09-03T17:02:37.022Z,100095.16
2022-09-03T17:07:45.411Z,100097.00
2022-09-03T17:12:56.810Z,100093.34
2022-09-03T17:18:27.137Z,100094.50
2022-09-03T17:23:50.390Z,100088.94
2022-09-03T17:29:04.907Z,100100.78
2022-09-03T17:34:15.072Z,100099.13
2022-09-03T17:39:39.752Z,100092.03
2022-09-03T17:44:52.103Z,100099.19
2022-09-03T17:49:57.991Z,100104.69
2022-09-03T17:55:02.056Z,100118.28
2022-09-03T18:00:08.316Z,100125.63
2022-09-03T18:05:19.649Z,100127.31
2022-09-03T18:10:28.210Z,100138.28
2022-09-03T18:15:33.980Z,100150.91
2022-09-03T18:21:21.957Z,100148.25
2022-09-03T18:26:46.650Z,100152.75
2022-09-03T18:32:09.095Z,100157.31
2022-09-03T18:37:29.973Z,100166.31
2022-09-03T18:42:59.192Z,100169.91
2022-09-03T18:48:28.464Z,100171.81
2022-09-03T18:53:55.765Z,100174.56
2022-09-03T18:59:28.066Z,100187.09
2022-09-03T19:05:03.676Z,100182.69
2022-09-03T19:10:27.113Z,100189.88
2022-09-03T19:15:49.975Z,100192.63
2022-09-03T19:21:19.158Z,100198.81
2022-09-03T19:26:45.814Z,100200.72
2022-09-03T19:32:10.661Z,100198.97
2022-09-03T19:37:36.470Z,100207.97
2022-09-03T19:43:04.052Z,100214.25
2022-09-03T19:48:29.316Z,100236.59
2022-09-03T19:53:50.810Z,100223.25
2022-09-03T19:59:14.821Z,100235.78
2022-09-03T20:04:35.168Z,100246.50
2022-09-03T20:09:59.254Z,100232.19
2022-09-03T20:15:04.394Z,100243.81
2022-09-03T20:20:17.463Z,100248.28
2022-09-03T20:25:57.482Z,100253.63
2022-09-03T20:31:03.147Z,100252.72
2022-09-03T20:36:15.007Z,100259.88
2022-09-03T20:41:24.893Z,100261.66
2022-09-03T20:46:38.511Z,100266.09
2022-09-03T20:51:46.030Z,100275.91
2022-09-03T20:57:14.367Z,100268.78
2022-09-03T21:02:26.706Z,100268.75
2022-09-03T21:07:37.442Z,100279.50
2022-09-03T21:12:49.152Z,100278.59
2022-09-03T21:17:57.209Z,100281.25
2022-09-03T21:23:07.033Z,100286.59
2022-09-03T21:28:15.037Z,100277.66
2022-09-03T21:33:20.620Z,100276.75
2022-09-03T21:38:26.120Z,100289.25
2022-09-03T21:43:34.108Z,100288.31
2022-09-03T21:48:39.394Z,100282.97
2022-09-03T21:53:45.251Z,100289.13
2022-09-03T21:59:00.362Z,100300.69
2022-09-03T22:04:03.461Z,100300.63
2022-09-03T22:09:11.903Z,100314.81
2022-09-03T22:14:17.123Z,100307.69
2022-09-03T22:19:19.795Z,100302.28
2022-09-03T22:24:28.008Z,100303.09
2022-09-03T22:29:38.026Z,100302.13
2022-09-03T22:34:50.054Z,100303.00
2022-09-03T22:39:56.249Z,100308.41
2022-09-03T22:45:13.553Z,100305.66
2022-09-03T22:50:20.522Z,100317.94
2022-09-03T22:55:25.492Z,100310.81
2022-09-03T23:00:31.078Z,100302.81
2022-09-03T23:05:41.195Z,100311.66
2022-09-03T23:11:00.383Z,100319.59
2022-09-03T23:16:10.804Z,100324.94
2022-09-03T23:21:23.054Z,100326.50
2022-09-03T23:26:31.519Z,100332.72
2022-09-03T23:31:35.837Z,100336.19
2022-09-03T23:42:23.493Z,100334.38
2022-09-03T23:47:37.144Z,100341.22
2022-09-03T23:52:53.798Z,100346.53
2022-09-03T23:58:08.182Z,100353.50
